Terminal Aerodrome Forecast
Issued by NWS

Home | Current Version | Previous Version | Text Only | Print | Product List | Glossary Off
Versions: 1 2 3 4 5 6 7 8 9 10 11 12 13 14 15 16 17 18 19 20 21 22 23 24 25 26 27 28 29 30 31 32 33 34 35
000 FTUS41 KBOX 011731 TAFFMH TAF KFMH 011731Z 0118/0218 02011G22KT P6SM FEW250 FM012100 35009KT P6SM FEW250 FM020000 34005KT P6SM SKC FM021100 26004KT P6SM SCT150=

USA.gov is the U.S. government's official web portal to all federal, state and local government web resources and services.